.
WxDataArchive / Data Records for 2013-05-30
2013-05-29 May 2013 2013-05-31

Data Records for Thursday, 30 May 2013

Time	Temp	Chill	HIndex	Humid	Dewpt	 Wind 	HiWind	WindDir	Rain 	Barom 
-----	----	-----	------	-----	-----	------	------	-------	-----	----- 
00:00	70.3	70.3	70.3	72	60.8	0	0	---	0.00	29.970 
00:05	70.1	70.1	70.1	73	61.0	0	0	---	0.00	29.970 
00:10	69.9	69.9	69.9	73	60.8	0	0	---	0.00	29.970 
00:15	69.9	69.9	69.9	73	60.8	0	0	---	0.00	29.970 
00:20	69.8	69.8	69.8	73	60.7	0	0	---	0.00	29.970 
00:25	69.6	69.6	69.6	73	60.6	0	0	---	0.00	29.970 
00:30	69.4	69.4	69.4	74	60.7	0	0	---	0.00	29.976 
00:35	69.3	69.3	69.3	74	60.6	0	0	---	0.00	29.976 
00:40	69.1	69.1	69.1	75	60.8	0	0	---	0.00	29.976 
00:45	68.8	68.8	68.8	76	60.9	0	0	---	0.00	29.978 
00:50	68.6	68.6	68.6	76	60.7	0	0	---	0.00	29.978 
00:55	68.4	68.4	68.4	76	60.5	0	0	---	0.00	29.978 
01:00	68.4	68.4	68.4	75	60.2	0	0	---	0.00	29.980 
01:05	68.6	68.6	68.6	74	60.0	0	0	---	0.00	29.980 
01:10	68.6	68.6	68.6	74	60.0	0	0	---	0.00	29.980 
01:15	68.8	68.8	68.8	73	59.8	0	0	---	0.00	29.981 
01:20	68.9	68.9	68.9	72	59.5	0	0	---	0.00	29.981 
01:25	69.3	69.3	69.3	72	59.9	0	0	---	0.00	29.981 
01:30	69.4	69.4	69.4	71	59.6	0	1	270	0.00	29.987 
01:35	69.4	69.4	69.4	71	59.6	0	0	---	0.00	29.987 
01:40	69.6	69.6	69.6	71	59.8	0	1	270	0.00	29.987 
01:45	69.6	69.6	69.6	71	59.8	0	1	270	0.00	29.994 
01:50	69.6	69.6	69.6	70	59.4	0	0	---	0.00	29.994 
01:55	69.6	69.6	69.6	70	59.4	0	1	270	0.00	29.994 
02:00	69.6	69.6	69.6	70	59.4	0	0	---	0.00	29.994 
02:05	69.6	69.6	69.6	70	59.4	0	0	---	0.00	29.994 
02:10	69.6	69.6	69.6	71	59.8	0	0	---	0.00	29.994 
02:15	69.6	69.6	69.6	71	59.8	0	0	---	0.00	29.993 
02:20	69.6	69.6	69.6	71	59.8	0	1	270	0.00	29.993 
02:25	69.6	69.6	69.6	71	59.8	0	0	---	0.00	29.993 
02:30	69.4	69.4	69.4	72	60.0	0	0	---	0.00	29.993 
02:35	69.4	69.4	69.4	72	60.0	0	0	---	0.00	29.993 
02:40	69.3	69.3	69.3	72	59.9	0	0	---	0.00	29.993 
02:45	69.3	69.3	69.3	73	60.3	0	0	---	0.00	29.993 
02:50	69.3	69.3	69.3	73	60.3	0	0	---	0.00	29.993 
02:55	69.3	69.3	69.3	73	60.3	0	0	---	0.00	29.993 
03:00	69.3	69.3	69.3	73	60.3	0	1	270	0.00	29.994 
03:05	69.4	69.4	69.4	74	60.7	0	1	270	0.00	29.994 
03:10	69.4	69.4	69.4	74	60.7	0	0	---	0.00	29.994 
03:15	69.3	69.3	69.3	74	60.6	0	0	---	0.00	29.994 
03:20	69.3	69.3	69.3	74	60.6	0	0	---	0.00	29.994 
03:25	69.3	69.3	69.3	74	60.6	0	0	---	0.00	29.994 
03:30	69.1	69.1	69.1	75	60.8	0	0	---	0.00	29.993 
03:35	68.9	68.9	68.9	75	60.6	0	0	---	0.00	29.993 
03:40	68.9	68.9	68.9	75	60.6	0	0	---	0.00	29.993 
03:45	68.9	68.9	68.9	76	61.0	0	0	---	0.00	29.992 
03:50	68.8	68.8	68.8	76	60.9	0	0	---	0.00	29.992 
03:55	68.8	68.8	68.8	76	60.9	0	0	---	0.00	29.992 
04:00	68.6	68.6	68.6	77	61.1	0	0	---	0.00	29.992 
04:05	68.6	68.6	68.6	77	61.1	0	0	---	0.00	29.992 
04:10	68.6	68.6	68.6	77	61.1	0	0	---	0.00	29.992 
04:15	68.6	68.6	68.6	77	61.1	0	0	---	0.00	29.992 
04:20	68.4	68.4	68.4	78	61.3	0	0	---	0.00	29.992 
04:25	68.4	68.4	68.4	78	61.3	0	0	---	0.00	29.992 
04:30	68.4	68.4	68.4	78	61.3	0	0	---	0.00	29.992 
04:35	68.4	68.4	68.4	79	61.6	0	0	---	0.00	29.992 
04:40	68.4	68.4	68.4	79	61.6	0	0	---	0.00	29.992 
04:45	68.6	68.6	68.6	79	61.8	0	0	---	0.00	29.992 
04:50	68.6	68.6	68.6	79	61.8	0	0	---	0.00	29.992 
04:55	68.4	68.4	68.4	79	61.6	0	0	---	0.00	29.992 
05:00	68.4	68.4	68.4	79	61.6	0	0	---	0.00	29.999 
05:05	68.4	68.4	68.4	80	62.0	0	0	---	0.00	29.999 
05:10	68.3	68.3	68.3	80	61.9	0	0	---	0.00	29.999 
05:15	68.3	68.3	68.3	80	61.9	0	0	---	0.00	30.002 
05:20	68.1	68.1	68.1	81	62.0	0	0	---	0.00	30.002 
05:25	68.1	68.1	68.1	81	62.0	0	0	---	0.00	30.002 
05:30	68.1	68.1	68.1	81	62.0	0	0	---	0.00	30.003 
05:35	68.3	68.3	68.3	82	62.6	0	0	---	0.00	30.003 
05:40	68.3	68.3	68.3	82	62.6	0	1	270	0.00	30.003 
05:45	68.4	68.4	68.4	82	62.7	0	1	270	0.00	30.005 
05:50	68.6	68.6	68.6	81	62.5	0	0	---	0.00	30.005 
05:55	68.8	68.8	68.8	81	62.7	0	0	---	0.00	30.005 
06:00	68.9	68.9	68.9	81	62.8	0	1	270	0.00	30.008 
06:05	69.1	69.1	69.1	81	63.0	0	1	270	0.00	30.008 
06:10	69.1	69.1	69.1	81	63.0	0	1	270	0.00	30.008 
06:15	69.3	69.3	69.3	81	63.2	0	1	270	0.00	30.013 
06:20	69.4	69.4	69.4	81	63.3	0	0	---	0.00	30.013 
06:25	69.4	69.4	69.4	81	63.3	0	2	248	0.00	30.013 
06:30	69.6	69.6	69.6	81	63.5	0	1	248	0.00	30.016 
06:35	69.8	69.8	69.8	80	63.3	0	1	248	0.00	30.016 
06:40	69.8	69.8	69.8	80	63.3	0	1	248	0.00	30.016 
06:45	69.9	69.9	69.9	80	63.4	0	0	---	0.00	30.020 
06:50	70.1	70.1	70.1	79	63.3	0	1	248	0.00	30.020 
06:55	70.1	70.1	70.1	79	63.3	0	2	248	0.00	30.020 
07:00	70.3	70.3	70.3	79	63.5	0	1	248	0.00	30.022 
07:05	70.4	70.4	70.4	79	63.6	0	2	248	0.00	30.022 
07:10	70.6	70.6	70.6	78	63.4	0	1	248	0.00	30.022 
07:15	70.9	70.9	70.9	78	63.7	0	2	248	0.00	30.023 
07:20	71.3	71.3	71.3	77	63.7	0	2	248	0.00	30.023 
07:25	71.6	71.6	71.6	76	63.6	0	2	248	0.00	30.023 
07:30	72.1	72.1	72.1	75	63.7	0	2	248	0.00	30.021 
07:35	72.7	72.7	72.7	74	63.9	0	3	248	0.00	30.021 
07:40	73.0	73.0	73.0	73	63.8	0	2	202	0.00	30.021 
07:45	73.5	73.5	73.5	73	64.3	1	3	270	0.00	30.022 
07:50	73.9	73.9	73.9	72	64.3	0	2	270	0.00	30.022 
07:55	74.2	74.2	74.2	72	64.6	0	2	270	0.00	30.022 
08:00	74.4	74.4	74.4	71	64.4	0	3	112	0.00	30.021 
08:05	74.6	74.6	74.6	70	64.2	1	3	112	0.00	30.021 
08:10	74.9	74.9	74.9	70	64.4	1	4	90	0.00	30.021 
08:15	75.4	75.4	77.1	69	64.5	0	1	90	0.00	30.025 
08:20	75.8	75.8	77.6	68	64.5	1	5	90	0.00	30.025 
08:25	76.3	76.3	78.0	68	64.9	0	5	68	0.00	30.025 
08:30	76.8	76.8	78.6	67	65.0	0	4	0	0.00	30.023 
08:35	77.0	77.0	78.8	66	64.8	1	4	225	0.00	30.023 
08:40	77.2	77.2	79.0	65	64.5	1	3	225	0.00	30.023 
08:45	77.6	77.6	79.4	65	64.9	1	4	248	0.00	30.025 
08:50	78.1	78.1	80.0	65	65.4	1	5	112	0.00	30.025 
08:55	78.5	78.5	80.4	64	65.3	1	4	270	0.00	30.025 
09:00	78.6	78.6	80.4	63	64.9	2	5	270	0.00	30.023 
09:05	79.2	79.2	81.1	63	65.5	1	3	270	0.00	30.023 
09:10	79.0	79.0	80.8	62	64.8	1	5	22	0.00	30.023 
09:15	79.0	79.0	80.8	62	64.8	1	6	292	0.00	30.026 
09:20	79.2	79.2	81.0	61	64.6	2	7	270	0.00	30.026 
09:25	79.4	79.4	81.3	62	65.2	1	4	248	0.00	30.026 
09:30	79.0	79.0	80.8	62	64.8	1	7	270	0.00	30.030 
09:35	78.5	78.5	80.3	62	64.4	1	4	270	0.00	30.030 
09:40	78.1	78.1	79.9	63	64.5	1	4	270	0.00	30.030 
09:45	77.7	77.7	79.5	64	64.5	1	4	292	0.00	30.033 
09:50	77.6	77.6	79.4	65	64.9	1	5	248	0.00	30.033 
09:55	77.4	77.4	79.2	65	64.7	1	3	248	0.00	30.033 
10:00	77.4	77.4	79.2	65	64.7	1	4	0	0.00	30.031 
10:05	77.4	77.4	79.2	65	64.7	1	5	248	0.00	30.031 
10:10	77.4	77.4	79.2	65	64.7	1	3	248	0.00	30.031 
10:15	77.4	77.4	79.2	66	65.1	1	3	248	0.00	30.028 
10:20	77.7	77.7	79.6	66	65.4	1	4	248	0.00	30.028 
10:25	78.1	78.1	79.9	64	64.9	1	4	270	0.00	30.028 
10:30	78.3	78.3	80.1	63	64.6	2	5	270	0.00	30.025 
10:35	78.5	78.5	80.4	65	65.7	1	4	248	0.00	30.025 
10:40	79.0	79.0	81.0	65	66.2	1	6	248	0.00	30.025 
10:45	79.6	79.6	81.7	64	66.3	2	9	270	0.00	30.023 
10:50	80.1	80.1	82.3	63	66.3	1	9	0	0.00	30.023 
10:55	80.5	80.5	82.8	63	66.7	1	5	338	0.00	30.023 
11:00	80.7	80.7	82.8	61	66.0	2	4	270	0.00	30.019 
11:05	80.9	80.9	83.2	62	66.6	1	4	270	0.00	30.019 
11:10	81.1	81.1	83.5	62	66.8	0	2	270	0.00	30.019 
11:15	81.4	81.4	83.8	61	66.6	1	5	270	0.00	30.016 
11:20	81.6	81.6	83.9	60	66.3	1	3	22	0.00	30.016 
11:25	82.0	82.0	84.6	61	67.2	1	3	248	0.00	30.016 
11:30	82.2	82.2	84.5	59	66.4	2	5	270	0.00	30.010 
11:35	82.4	82.4	85.0	60	67.1	2	6	270	0.00	30.010 
11:40	82.4	82.4	84.6	58	66.1	2	6	248	0.00	30.010 
11:45	82.8	82.8	85.4	59	67.0	1	4	248	0.00	30.014 
11:50	83.6	83.6	86.4	58	67.2	1	5	225	0.00	30.014 
11:55	84.0	84.0	87.0	58	67.6	2	4	90	0.00	30.014 
12:00	84.0	84.0	87.0	58	67.6	2	6	90	0.00	30.010 
12:05	83.8	83.8	86.4	57	66.9	2	5	248	0.00	30.010 
12:10	84.0	84.0	87.0	58	67.6	2	10	270	0.00	30.010 
12:15	84.1	84.1	86.7	56	66.7	1	4	315	0.00	30.008 
12:20	84.1	84.1	86.7	56	66.7	2	6	270	0.00	30.008 
12:25	84.3	84.3	86.5	54	65.8	2	7	248	0.00	30.008 
12:30	84.3	84.3	87.2	57	67.4	2	5	270	0.00	30.007 
12:35	84.3	84.3	86.7	55	66.3	2	4	248	0.00	30.007 
12:40	84.5	84.5	86.7	54	66.0	2	5	270	0.00	30.007 
12:45	85.1	85.1	87.7	54	66.6	2	5	270	0.00	30.007 
12:50	85.3	85.3	88.5	56	67.8	1	6	248	0.00	30.007 
12:55	85.5	85.5	88.3	54	66.9	1	8	270	0.00	30.007 
13:00	85.3	85.3	87.4	52	65.6	2	5	112	0.00	30.004 
13:05	85.5	85.5	87.4	51	65.3	3	15	68	0.00	30.004 
13:10	85.7	85.7	88.3	53	66.6	1	3	270	0.00	30.004 
13:15	85.9	85.9	88.0	51	65.6	2	5	248	0.00	29.991 
13:20	86.1	86.1	88.9	53	66.9	1	6	248	0.00	29.991 
13:25	86.5	86.5	88.9	51	66.2	1	3	90	0.00	29.991 
13:30	86.3	86.3	88.0	49	64.9	2	6	270	0.00	29.989 
13:35	85.9	85.9	87.7	50	65.1	3	18	68	0.00	29.989 
13:40	85.9	85.9	88.0	51	65.6	1	5	270	0.00	29.989 
13:45	86.1	86.1	87.8	49	64.7	2	8	270	0.00	29.988 
13:50	85.7	85.7	87.2	49	64.3	2	5	248	0.00	29.988 
13:55	85.3	85.3	86.6	49	63.9	3	6	270	0.00	29.988 
14:00	85.1	85.1	87.1	52	65.5	1	4	270	0.00	29.989 
14:05	85.3	85.3	87.7	53	66.2	1	4	248	0.00	29.989 
14:10	85.1	85.1	86.9	51	64.9	2	9	248	0.00	29.989 
14:15	85.1	85.1	86.9	51	64.9	1	6	90	0.00	29.983 
14:20	85.1	85.1	86.9	51	64.9	0	4	90	0.00	29.983 
14:25	85.1	85.1	86.1	48	63.2	2	6	292	0.00	29.983 
14:30	84.9	84.9	86.3	50	64.2	1	3	270	0.00	29.986 
14:35	84.5	84.5	85.8	50	63.8	1	6	248	0.00	29.986 
14:40	84.3	84.3	85.7	51	64.2	1	3	292	0.00	29.986 
14:45	84.1	84.1	85.5	51	64.0	1	3	292	0.00	29.981 
14:50	84.1	84.1	85.9	53	65.1	1	6	270	0.00	29.981 
14:55	84.7	84.7	87.0	54	66.2	0	2	0	0.00	29.981 
15:00	84.9	84.9	86.8	52	65.3	1	5	270	0.00	29.974 
15:05	84.9	84.9	86.8	52	65.3	1	6	270	0.00	29.974 
15:10	84.7	84.7	86.5	52	65.1	1	3	270	0.00	29.974 
15:15	85.1	85.1	87.7	54	66.6	0	3	270	0.00	29.971 
15:20	85.7	85.7	87.7	51	65.5	1	4	248	0.00	29.971 
15:25	85.9	85.9	87.7	50	65.1	1	4	90	0.00	29.971 
15:30	85.7	85.7	87.4	50	64.9	1	5	90	0.00	29.961 
15:35	85.5	85.5	87.7	52	65.8	1	3	248	0.00	29.961 
15:40	85.3	85.3	87.1	51	65.1	2	5	135	0.00	29.961 
15:45	85.3	85.3	87.4	52	65.6	2	5	90	0.00	29.963 
15:50	85.7	85.7	87.7	51	65.5	1	4	270	0.00	29.963 
15:55	86.3	86.3	88.0	49	64.9	2	7	90	0.00	29.963 
16:00	86.3	86.3	87.8	48	64.3	1	5	292	0.00	29.958 
16:05	86.1	86.1	88.3	51	65.8	2	6	112	0.00	29.958 
16:10	86.3	86.3	88.3	50	65.4	1	4	68	0.00	29.958 
16:15	86.7	86.7	88.3	48	64.6	1	4	90	0.00	29.947 
16:20	86.5	86.5	88.3	49	65.0	1	4	112	0.00	29.947 
16:25	86.5	86.5	88.6	50	65.6	1	3	90	0.00	29.947 
16:30	86.7	86.7	88.9	50	65.8	1	3	90	0.00	29.941 
16:35	86.5	86.5	88.3	49	65.0	2	6	90	0.00	29.941 
16:40	85.9	85.9	87.7	50	65.1	2	8	90	0.00	29.941 
16:45	85.3	85.3	87.1	51	65.1	2	5	68	0.00	29.940 
16:50	85.3	85.3	88.0	54	66.7	1	6	112	0.00	29.940 
16:55	85.5	85.5	87.4	51	65.3	1	5	68	0.00	29.940 
17:00	85.1	85.1	87.7	54	66.6	1	5	90	0.00	29.930 
17:05	84.5	84.5	86.7	54	66.0	1	4	90	0.00	29.930 
17:10	83.8	83.8	85.7	54	65.3	1	6	112	0.00	29.930 
17:15	83.6	83.6	85.7	55	65.7	0	2	90	0.00	29.928 
17:20	83.6	83.6	85.9	56	66.2	0	2	90	0.00	29.928 
17:25	83.8	83.8	86.0	55	65.9	1	4	90	0.00	29.928 
17:30	84.0	84.0	86.3	55	66.1	1	3	90	0.00	29.918 
17:35	84.0	84.0	86.0	54	65.5	3	7	90	0.00	29.918 
17:40	84.1	84.1	86.2	54	65.6	1	3	68	0.00	29.918 
17:45	84.3	84.3	86.5	54	65.8	1	3	68	0.00	29.915 
17:50	84.7	84.7	87.0	54	66.2	0	2	112	0.00	29.915 
17:55	84.3	84.3	86.2	53	65.3	1	4	45	0.00	29.915 
18:00	84.0	84.0	86.0	54	65.5	1	6	68	0.00	29.915 
18:05	83.6	83.6	85.2	53	64.6	2	5	112	0.00	29.915 
18:10	83.2	83.2	84.7	53	64.3	2	7	68	0.00	29.915 
18:15	83.2	83.2	84.9	54	64.8	2	4	68	0.00	29.913 
18:20	83.2	83.2	85.1	55	65.3	1	3	68	0.00	29.913 
18:25	83.6	83.6	85.7	55	65.7	1	4	68	0.00	29.913 
18:30	84.0	84.0	86.0	54	65.5	1	5	90	0.00	29.916 
18:35	84.1	84.1	86.4	55	66.2	1	3	90	0.00	29.916 
18:40	84.1	84.1	85.9	53	65.1	1	4	90	0.00	29.916 
18:45	84.0	84.0	85.6	52	64.4	0	4	90	0.00	29.913 
18:50	83.8	83.8	84.9	50	63.1	1	3	270	0.00	29.913 
18:55	83.6	83.6	84.6	50	63.0	1	5	45	0.00	29.913 
19:00	83.4	83.4	84.6	51	63.3	0	2	22	0.00	29.924 
19:05	83.4	83.4	84.4	50	62.8	0	3	22	0.00	29.924 
19:10	83.6	83.6	84.8	51	63.5	0	6	45	0.00	29.924 
19:15	83.8	83.8	85.1	51	63.7	0	1	45	0.00	29.922 
19:20	84.0	84.0	85.6	52	64.4	0	1	45	0.00	29.922 
19:25	84.1	84.1	85.5	51	64.0	1	7	90	0.00	29.922 
19:30	84.1	84.1	85.5	51	64.0	1	4	270	0.00	29.911 
19:35	84.1	84.1	85.7	52	64.5	1	4	270	0.00	29.911 
19:40	84.1	84.1	85.7	52	64.5	2	5	112	0.00	29.911 
19:45	83.6	83.6	85.2	53	64.6	1	3	90	0.00	29.908 
19:50	83.2	83.2	84.9	54	64.8	1	4	90	0.00	29.908 
19:55	82.8	82.8	84.6	55	65.0	0	2	112	0.00	29.908 
20:00	80.3	80.3	82.3	61	65.6	2	8	90	0.05	29.940 
20:05	76.7	76.7	78.5	67	64.9	2	5	112	0.03	29.940 
20:10	73.9	73.9	73.9	73	64.7	2	4	90	0.00	29.940 
20:15	72.5	72.5	72.5	77	64.9	2	5	90	0.00	29.945 
20:20	72.0	72.0	72.0	79	65.1	1	9	90	0.00	29.945 
20:25	71.8	71.8	71.8	80	65.3	1	3	90	0.00	29.945 
20:30	71.6	71.6	71.6	81	65.4	1	4	90	0.00	29.940 
20:35	71.5	71.5	71.5	82	65.7	2	5	90	0.00	29.940 
20:40	71.1	71.1	71.1	84	66.0	1	3	90	0.00	29.940 
20:45	70.9	70.9	70.9	84	65.8	0	2	90	0.00	29.931 
20:50	70.8	70.8	70.8	85	66.1	0	1	90	0.00	29.931 
20:55	70.6	70.6	70.6	86	66.2	0	0	---	0.00	29.931 
21:00	70.4	70.4	70.4	86	66.0	0	0	---	0.00	29.936 
21:05	70.3	70.3	70.3	86	65.9	0	0	---	0.00	29.936 
21:10	70.1	70.1	70.1	87	66.0	0	0	---	0.00	29.936 
21:15	69.9	69.9	69.9	87	65.8	0	1	90	0.00	29.936 
21:20	69.8	69.8	69.8	87	65.7	0	1	90	0.00	29.936 
21:25	69.6	69.6	69.6	87	65.6	0	1	90	0.00	29.936 
21:30	69.6	69.6	69.6	87	65.6	0	0	---	0.00	29.938 
21:35	69.4	69.4	69.4	87	65.4	0	0	---	0.00	29.938 
21:40	69.3	69.3	69.3	87	65.3	0	1	90	0.00	29.938 
21:45	69.4	69.4	69.4	87	65.4	0	0	---	0.00	29.944 
21:50	69.3	69.3	69.3	87	65.3	0	0	---	0.00	29.944 
21:55	69.1	69.1	69.1	88	65.4	0	0	---	0.00	29.944 
22:00	68.9	68.9	68.9	88	65.2	0	0	---	0.00	29.953 
22:05	68.9	68.9	68.9	88	65.2	0	0	---	0.00	29.953 
22:10	68.8	68.8	68.8	88	65.1	0	0	---	0.00	29.953 
22:15	68.8	68.8	68.8	89	65.4	0	0	---	0.00	29.955 
22:20	68.8	68.8	68.8	89	65.4	0	0	---	0.00	29.955 
22:25	68.8	68.8	68.8	90	65.7	0	0	---	0.00	29.955 
22:30	68.9	68.9	68.9	90	65.8	0	0	---	0.00	29.953 
22:35	68.9	68.9	68.9	90	65.8	0	0	---	0.00	29.953 
22:40	68.9	68.9	68.9	90	65.8	0	0	---	0.00	29.953 
22:45	68.9	68.9	68.9	90	65.8	0	0	---	0.00	29.958 
22:50	68.9	68.9	68.9	90	65.8	0	0	---	0.00	29.958 
22:55	68.9	68.9	68.9	90	65.8	0	0	---	0.00	29.958 
23:00	68.8	68.8	68.8	90	65.7	0	0	---	0.00	29.960 
23:05	68.8	68.8	68.8	90	65.7	0	0	---	0.00	29.960 
23:10	68.6	68.6	68.6	90	65.5	0	0	---	0.00	29.960 
23:15	68.6	68.6	68.6	90	65.5	0	0	---	0.00	29.963 
23:20	68.6	68.6	68.6	91	65.9	0	0	---	0.00	29.963 
23:25	68.4	68.4	68.4	91	65.7	0	0	---	0.00	29.963 
23:30	68.4	68.4	68.4	91	65.7	0	0	---	0.00	29.962 
23:35	68.3	68.3	68.3	91	65.6	0	0	---	0.00	29.962 
23:40	68.3	68.3	68.3	91	65.6	0	0	---	0.00	29.962 
23:45	68.3	68.3	68.3	92	65.9	0	0	---	0.00	29.958 
23:50	68.3	68.3	68.3	92	65.9	0	0	---	0.00	29.958 
23:55	68.3	68.3	68.3	92	65.9	0	0	---	0.00	29.958 

CoCoRaHS
IN-AL-39
A2 Web Hosting
Creative Commons License
GoDaddy
search engine by freefind advanced

loaded 2018-11-16 23:13:43 • last modified 2010-11-18 10:43:29
Privacy PolicyDisclaimer
• wx.awcolley.com is powered by PmWiki v.2002016 •
• all content (unless otherwise noted) © 2018 A W Colley